Time;durP1;ratioP1;P1;durP2;ratioP2;P2;SDS_P1;SDS_P2;PMS_P1;PMS_P2;Temp;Humidity;BMP_temperature;BMP_pressure;BME280_temperature;BME280_humidity;BME280_pressure;Samples;Min_cycle;Max_cycle;Signal;HPM_P1;HPM_P2
2022/08/22 00:02:18;;;;;;;7.77;4.20;;;;;;;;;;6116607;23;20042;-79
2022/08/22 00:04:55;;;;;;;7.95;4.60;;;;;;;;;;6116067;23;20320;-79
2022/08/22 00:07:54;;;;;;;8.93;4.13;;;;;;;;;;6116275;23;20022;-79
2022/08/22 00:10:25;;;;;;;6.93;4.00;;;;;;;;;;6090786;23;20018;-79
2022/08/22 00:12:58;;;;;;;7.80;4.38;;;;;;;;;;6092495;23;20048;-80
2022/08/22 00:15:37;;;;;;;7.60;4.32;;;;;;;;;;6115336;23;20362;-79
2022/08/22 00:18:15;;;;;;;7.78;4.22;;;;;;;;;;6118364;23;20555;-79
2022/08/22 00:21:13;;;;;;;7.22;4.13;;;;;;;;;;6116363;23;20455;-79
2022/08/22 00:24:13;;;;;;;8.73;4.15;;;;;;;;;;6092112;23;20050;-79
2022/08/22 00:26:54;;;;;;;6.68;4.32;;;;;;;;;;6063826;23;20019;-79
2022/08/22 00:29:24;;;;;;;7.38;4.28;;;;;;;;;;6117676;23;20029;-79
2022/08/22 00:32:07;;;;;;;8.73;4.75;;;;;;;;;;6116139;23;20069;-79
2022/08/22 00:34:38;;;;;;;7.15;4.25;;;;;;;;;;6116739;23;20398;-78
2022/08/22 00:37:26;;;;;;;7.75;4.40;;;;;;;;;;6115539;23;20351;-79
2022/08/22 00:40:27;;;;;;;9.10;4.47;;;;;;;;;;6115899;23;20446;-79
2022/08/22 00:43:15;;;;;;;8.13;4.78;;;;;;;;;;6018443;23;20025;-79
2022/08/22 00:45:59;;;;;;;;;;;;;;;;;;6115957;23;20037;-79
2022/08/22 00:48:39;;;;;;;8.15;4.13;;;;;;;;;;6116367;23;19917;-79
2022/08/22 00:51:34;;;;;;;7.30;4.45;;;;;;;;;;6115060;23;20450;-79
2022/08/22 00:54:05;;;;;;;10.05;4.80;;;;;;;;;;6115992;23;20018;-79
2022/08/22 00:56:55;;;;;;;6.45;4.60;;;;;;;;;;6117397;23;20014;-79
2022/08/22 00:59:40;;;;;;;9.48;4.70;;;;;;;;;;6117407;23;20438;-79
2022/08/22 01:02:30;;;;;;;6.35;4.43;;;;;;;;;;6116614;23;20382;-79
2022/08/22 01:05:06;;;;;;;6.78;4.10;;;;;;;;;;6115799;23;20093;-79
2022/08/22 01:08:02;;;;;;;9.73;4.68;;;;;;;;;;6115303;23;20349;-78
2022/08/22 01:10:33;;;;;;;7.18;4.30;;;;;;;;;;6114731;23;20469;-79
2022/08/22 01:13:11;;;;;;;9.05;4.30;;;;;;;;;;6116346;23;20471;-79
2022/08/22 01:15:37;;;;;;;7.13;3.92;;;;;;;;;;6116044;23;20455;-79
2022/08/22 01:19:00;;;;;;;8.80;4.72;;;;;;;;;;6091585;23;20029;-78
2022/08/22 01:21:44;;;;;;;10.02;4.60;;;;;;;;;;6002836;23;20555;-80
2022/08/22 01:25:16;;;;;;;9.57;4.75;;;;;;;;;;6027397;23;20324;-79
2022/08/22 01:27:51;;;;;;;9.02;4.60;;;;;;;;;;6116469;23;20014;-79
2022/08/22 01:30:54;;;;;;;8.40;4.50;;;;;;;;;;6114655;23;20469;-79
2022/08/22 01:33:22;;;;;;;7.13;4.20;;;;;;;;;;6115548;23;20010;-78
2022/08/22 01:36:10;;;;;;;6.97;4.53;;;;;;;;;;6117125;23;20024;-79
2022/08/22 01:38:57;;;;;;;7.45;4.45;;;;;;;;;;6115766;23;20021;-79
2022/08/22 01:41:50;;;;;;;7.88;4.57;;;;;;;;;;6114955;23;20350;-79
2022/08/22 01:44:49;;;;;;;7.88;4.43;;;;;;;;;;6115693;23;20061;-79
2022/08/22 01:47:33;;;;;;;6.53;4.35;;;;;;;;;;6114656;23;20117;-79
2022/08/22 01:50:22;;;;;;;6.38;4.10;;;;;;;;;;6116589;23;20040;-78
2022/08/22 01:53:05;;;;;;;8.13;4.63;;;;;;;;;;6068298;23;20467;-79
2022/08/22 01:56:00;;;;;;;6.68;4.13;;;;;;;;;;6090500;23;20042;-79
2022/08/22 01:58:31;;;;;;;6.32;3.80;;;;;;;;;;6091017;23;20101;-79
2022/08/22 02:01:02;;;;;;;7.85;4.22;;;;;;;;;;6066444;23;20018;-79
2022/08/22 02:03:50;;;;;;;7.15;4.43;;;;;;;;;;6091261;23;20513;-79
2022/08/22 02:06:22;;;;;;;7.35;4.03;;;;;;;;;;6090760;23;20025;-79
2022/08/22 02:08:56;;;;;;;7.90;4.07;;;;;;;;;;6067612;23;20045;-78
2022/08/22 02:11:32;;;;;;;7.32;4.45;;;;;;;;;;6066901;23;20104;-79
2022/08/22 02:14:03;;;;;;;7.80;4.40;;;;;;;;;;6091056;23;20010;-79
2022/08/22 02:16:41;;;;;;;7.22;4.07;;;;;;;;;;6090552;23;20017;-79
2022/08/22 02:19:13;;;;;;;6.13;4.15;;;;;;;;;;6067231;23;20041;-79
2022/08/22 02:21:44;;;;;;;8.23;4.47;;;;;;;;;;6117171;23;20036;-79
2022/08/22 02:24:23;;;;;;;8.45;4.43;;;;;;;;;;6067403;23;20041;-79
2022/08/22 02:27:18;;;;;;;7.65;4.30;;;;;;;;;;6090097;23;20029;-79
2022/08/22 02:29:51;;;;;;;6.93;4.20;;;;;;;;;;6090566;23;20021;-79
2022/08/22 02:32:57;;;;;;;6.22;3.67;;;;;;;;;;6066648;23;20074;-79
2022/08/22 02:35:25;;;;;;;7.53;4.07;;;;;;;;;;6059504;23;20093;-79
2022/08/22 02:38:05;;;;;;;6.55;4.07;;;;;;;;;;6091693;23;20006;-79
2022/08/22 02:40:34;;;;;;;8.18;3.85;;;;;;;;;;6116173;23;20021;-79
2022/08/22 02:43:09;;;;;;;6.88;3.85;;;;;;;;;;6067421;23;20185;-79
2022/08/22 02:45:40;;;;;;;8.23;4.18;;;;;;;;;;6066202;23;20021;-79
2022/08/22 02:48:18;;;;;;;7.28;4.30;;;;;;;;;;6118241;23;20029;-79
2022/08/22 02:50:51;;;;;;;7.03;4.20;;;;;;;;;;6117530;23;20014;-78
2022/08/22 02:53:43;;;;;;;7.55;4.47;;;;;;;;;;6093406;23;20014;-79
2022/08/22 02:56:12;;;;;;;6.75;4.32;;;;;;;;;;6079360;23;20017;-79
2022/08/22 02:58:55;;;;;;;9.43;4.63;;;;;;;;;;6093041;23;20022;-79
2022/08/22 03:01:32;;;;;;;8.23;4.65;;;;;;;;;;6068114;23;20448;-80
2022/08/22 03:04:23;;;;;;;7.82;4.50;;;;;;;;;;6092823;23;20345;-79
2022/08/22 03:07:17;;;;;;;5.90;4.60;;;;;;;;;;6110953;23;20024;-78
2022/08/22 03:10:22;;;;;;;7.07;4.00;;;;;;;;;;6118100;23;20014;-79
2022/08/22 03:12:54;;;;;;;8.07;4.30;;;;;;;;;;6086932;23;20120;-79
2022/08/22 03:15:29;;;;;;;6.18;4.20;;;;;;;;;;6067776;23;20033;-78
2022/08/22 03:18:03;;;;;;;8.20;4.75;;;;;;;;;;6069215;23;20025;-79
2022/08/22 03:20:43;;;;;;;7.85;4.72;;;;;;;;;;6092208;23;20021;-79
2022/08/22 03:23:43;;;;;;;7.90;4.60;;;;;;;;;;6069320;23;20458;-79
2022/08/22 03:26:12;;;;;;;7.28;4.57;;;;;;;;;;6068094;23;20022;-79
2022/08/22 03:29:02;;;;;;;7.97;4.68;;;;;;;;;;6092945;23;20398;-79
2022/08/22 03:31:30;;;;;;;7.72;4.57;;;;;;;;;;6092172;23;20017;-79
2022/08/22 03:34:20;;;;;;;6.95;4.40;;;;;;;;;;6092213;23;20328;-79
2022/08/22 03:37:13;;;;;;;10.18;4.80;;;;;;;;;;6092595;23;20026;-78
2022/08/22 03:39:50;;;;;;;6.03;4.28;;;;;;;;;;6119097;23;20010;-79
2022/08/22 03:42:25;;;;;;;7.20;4.90;;;;;;;;;;6091923;23;20014;-79
2022/08/22 03:45:01;;;;;;;7.55;4.53;;;;;;;;;;6092376;23;20447;-79
2022/08/22 03:47:27;;;;;;;6.93;4.10;;;;;;;;;;6067570;23;20017;-79
2022/08/22 03:50:04;;;;;;;6.85;4.15;;;;;;;;;;6109880;23;20617;-79
2022/08/22 03:53:06;;;;;;;6.63;4.40;;;;;;;;;;6116788;23;20018;-79
2022/08/22 03:55:40;;;;;;;8.07;4.60;;;;;;;;;;6116295;23;20101;-79
2022/08/22 03:58:27;;;;;;;9.60;4.97;;;;;;;;;;6116392;23;20054;-79
2022/08/22 04:01:21;;;;;;;7.15;4.47;;;;;;;;;;6115800;23;20165;-80
2022/08/22 04:04:34;;;;;;;7.82;4.68;;;;;;;;;;6118583;23;20025;-80
2022/08/22 04:07:02;;;;;;;7.05;4.20;;;;;;;;;;6051985;23;20025;-79
2022/08/22 04:09:46;;;;;;;6.50;4.20;;;;;;;;;;6118051;23;20069;-79
2022/08/22 04:12:30;;;;;;;6.95;4.40;;;;;;;;;;6116343;23;20099;-79
2022/08/22 04:15:25;;;;;;;7.10;4.57;;;;;;;;;;6116220;23;20032;-79
2022/08/22 04:18:27;;;;;;;7.60;4.25;;;;;;;;;;6118959;23;20029;-80
2022/08/22 04:21:08;;;;;;;6.22;4.22;;;;;;;;;;6117271;23;20010;-79
2022/08/22 04:23:42;;;;;;;11.63;4.38;;;;;;;;;;6118677;23;20052;-80
2022/08/22 04:26:28;;;;;;;7.72;4.47;;;;;;;;;;6115417;23;20077;-79
2022/08/22 04:29:18;;;;;;;8.85;4.50;;;;;;;;;;6091382;23;20414;-79
2022/08/22 04:31:55;;;;;;;6.82;4.13;;;;;;;;;;6097984;23;20014;-79
2022/08/22 04:34:39;;;;;;;6.35;3.88;;;;;;;;;;6117733;23;20084;-79
2022/08/22 04:37:19;;;;;;;7.28;3.83;;;;;;;;;;6116053;23;20025;-79
2022/08/22 04:40:11;;;;;;;8.38;4.03;;;;;;;;;;6091498;23;20018;-79
2022/08/22 04:43:05;;;;;;;6.40;4.43;;;;;;;;;;6090772;23;20029;-79
2022/08/22 04:45:34;;;;;;;8.82;4.57;;;;;;;;;;6105299;23;20018;-79
2022/08/22 04:48:07;;;;;;;7.18;4.40;;;;;;;;;;6117458;23;20332;-78
2022/08/22 04:50:41;;;;;;;7.53;4.45;;;;;;;;;;6091227;23;20026;-78
2022/08/22 04:53:43;;;;;;;10.48;4.40;;;;;;;;;;6091496;23;20037;-78
2022/08/22 04:56:29;;;;;;;6.85;4.18;;;;;;;;;;6090341;23;20540;-78
2022/08/22 04:58:58;;;;;;;6.35;4.07;;;;;;;;;;6116508;23;20032;-79
2022/08/22 05:01:36;;;;;;;8.32;4.03;;;;;;;;;;6067515;23;20077;-79
2022/08/22 05:04:11;;;;;;;6.97;4.50;;;;;;;;;;6067641;23;20358;-80
2022/08/22 05:06:40;;;;;;;6.30;3.80;;;;;;;;;;6067236;23;20022;-80
2022/08/22 05:09:13;;;;;;;10.20;4.30;;;;;;;;;;6067124;23;20781;-79
2022/08/22 05:11:40;;;;;;;8.68;3.92;;;;;;;;;;6091321;23;20400;-79
2022/08/22 05:14:18;;;;;;;7.93;4.07;;;;;;;;;;6090984;23;20086;-79
2022/08/22 05:16:45;;;;;;;7.55;4.45;;;;;;;;;;6066999;23;20025;-79
2022/08/22 05:19:15;;;;;;;7.13;4.88;;;;;;;;;;6091049;23;20014;-79
2022/08/22 05:21:41;;;;;;;9.68;4.50;;;;;;;;;;6067264;23;20481;-80
2022/08/22 05:24:28;;;;;;;7.85;4.57;;;;;;;;;;6090606;23;20022;-79
2022/08/22 05:26:54;;;;;;;;;;;;;;;;;;6116019;23;20080;-80
2022/08/22 05:29:23;;;;;;;6.82;4.00;;;;;;;;;;6090744;23;19908;-79
2022/08/22 05:31:54;;;;;;;8.77;4.35;;;;;;;;;;6090164;23;20018;-79
2022/08/22 05:34:24;;;;;;;6.40;3.67;;;;;;;;;;6090380;23;20029;-79
2022/08/22 05:36:54;;;;;;;8.95;4.80;;;;;;;;;;6066365;23;20514;-79
2022/08/22 05:39:23;;;;;;;7.80;3.85;;;;;;;;;;6090528;23;20025;-79
2022/08/22 05:41:48;;;;;;;7.57;4.13;;;;;;;;;;6066502;23;20021;-80
2022/08/22 05:44:19;;;;;;;9.02;4.28;;;;;;;;;;6090666;23;20021;-79
2022/08/22 05:46:49;;;;;;;7.28;4.22;;;;;;;;;;6090528;23;20450;-79
2022/08/22 05:49:17;;;;;;;10.38;4.80;;;;;;;;;;6075769;23;20084;-79
2022/08/22 05:51:56;;;;;;;7.47;4.15;;;;;;;;;;6113782;23;20026;-79
2022/08/22 05:54:23;;;;;;;;;;;;;;;;;;6115079;23;20457;-79
2022/08/22 05:56:53;;;;;;;6.43;4.05;;;;;;;;;;6090372;23;19919;-79
2022/08/22 05:59:26;;;;;;;7.32;3.83;;;;;;;;;;6114825;23;20649;-78
2022/08/22 06:02:02;;;;;;;8.30;4.13;;;;;;;;;;6114552;23;20466;-78
2022/08/22 06:04:37;;;;;;;9.68;4.32;;;;;;;;;;6089874;23;20040;-79
2022/08/22 06:07:15;;;;;;;8.57;4.18;;;;;;;;;;6114237;23;20038;-78
2022/08/22 06:09:47;;;;;;;7.80;4.13;;;;;;;;;;6114701;23;20022;-78
2022/08/22 06:12:21;;;;;;;9.13;4.10;;;;;;;;;;6114101;23;20355;-78
2022/08/22 06:14:59;;;;;;;6.95;3.83;;;;;;;;;;6114901;23;20383;-78
2022/08/22 06:17:38;;;;;;;8.73;4.50;;;;;;;;;;6089863;23;20025;-78
2022/08/22 06:20:07;;;;;;;7.25;4.18;;;;;;;;;;6090970;23;20014;-78
2022/08/22 06:22:36;;;;;;;8.10;4.25;;;;;;;;;;6091550;23;20032;-79
2022/08/22 06:25:11;;;;;;;9.32;5.20;;;;;;;;;;6117487;23;20018;-78
2022/08/22 06:27:37;;;;;;;8.88;4.50;;;;;;;;;;6116758;23;20025;-78
2022/08/22 06:30:04;;;;;;;8.07;4.85;;;;;;;;;;6092419;23;20022;-78
2022/08/22 06:32:33;;;;;;;6.38;4.35;;;;;;;;;;6092081;23;20486;-78
2022/08/22 06:35:06;;;;;;;9.25;4.30;;;;;;;;;;6117530;23;20097;-78
2022/08/22 06:37:37;;;;;;;8.75;4.32;;;;;;;;;;6091554;23;20012;-79
2022/08/22 06:40:24;;;;;;;8.05;4.22;;;;;;;;;;6091887;23;20104;-78
2022/08/22 06:42:50;;;;;;;7.90;4.40;;;;;;;;;;5975613;23;20023;-78
2022/08/22 06:45:20;;;;;;;6.77;4.00;;;;;;;;;;5975615;23;20031;-78
2022/08/22 06:47:53;;;;;;;8.90;4.03;;;;;;;;;;5953826;23;20022;-78
2022/08/22 06:50:25;;;;;;;7.70;4.13;;;;;;;;;;5952279;23;20539;-78
2022/08/22 06:52:51;;;;;;;8.43;4.03;;;;;;;;;;5976639;23;20551;-78
2022/08/22 06:55:17;;;;;;;8.25;3.88;;;;;;;;;;5975811;23;20075;-80
2022/08/22 06:57:53;;;;;;;7.18;4.28;;;;;;;;;;6000603;23;20024;-81
2022/08/22 07:00:19;;;;;;;9.55;4.38;;;;;;;;;;5952326;23;20345;-79
2022/08/22 07:03:01;;;;;;;8.65;4.30;;;;;;;;;;5977712;23;20024;-79
2022/08/22 07:05:33;;;;;;;7.65;4.00;;;;;;;;;;5999346;23;20038;-79
2022/08/22 07:08:04;;;;;;;8.20;3.83;;;;;;;;;;5998891;23;20020;-79
2022/08/22 07:10:30;;;;;;;7.35;4.20;;;;;;;;;;5974664;23;20024;-78
2022/08/22 07:12:55;;;;;;;7.70;4.25;;;;;;;;;;5976107;23;20108;-78
2022/08/22 07:15:31;;;;;;;9.38;4.10;;;;;;;;;;5951705;23;20026;-79
2022/08/22 07:17:58;;;;;;;8.38;4.10;;;;;;;;;;5977253;23;20020;-79
2022/08/22 07:20:28;;;;;;;8.98;3.58;;;;;;;;;;6038603;23;20014;-79
2022/08/22 07:23:06;;;;;;;7.78;3.75;;;;;;;;;;6063121;23;20015;-79
2022/08/22 07:25:45;;;;;;;8.63;4.40;;;;;;;;;;6038687;23;21162;-79
2022/08/22 07:28:25;;;;;;;10.32;4.20;;;;;;;;;;6038808;23;20093;-79
2022/08/22 07:30:53;;;;;;;7.05;3.50;;;;;;;;;;6037422;23;20445;-79
2022/08/22 07:33:42;;;;;;;7.47;3.70;;;;;;;;;;6060870;23;20455;-79
2022/08/22 07:36:53;;;;;;;6.72;3.60;;;;;;;;;;6038557;23;20354;-79
2022/08/22 07:39:31;;;;;;;10.05;4.00;;;;;;;;;;6062128;23;20456;-79
2022/08/22 07:42:25;;;;;;;;;;;;;;;;;;6062516;23;20018;-77
2022/08/22 07:45:01;;;;;;;9.07;4.05;;;;;;;;;;6068219;23;20061;-80
2022/08/22 07:47:53;;;;;;;7.93;3.75;;;;;;;;;;6087493;23;20637;-77
2022/08/22 07:50:22;;;;;;;6.53;3.33;;;;;;;;;;6111328;23;20029;-77
2022/08/22 07:52:49;;;;;;;9.98;3.60;;;;;;;;;;6090790;23;20474;-78
2022/08/22 07:55:21;;;;;;;5.38;3.00;;;;;;;;;;6115031;23;20010;-77
2022/08/22 07:57:53;;;;;;;8.70;3.40;;;;;;;;;;6115794;23;20681;-78
2022/08/22 08:00:19;;;;;;;7.22;3.05;;;;;;;;;;6114593;23;20315;-78
2022/08/22 08:02:51;;;;;;;6.65;3.20;;;;;;;;;;6091196;23;20474;-78
2022/08/22 08:05:18;;;;;;;5.50;3.25;;;;;;;;;;6114771;23;20013;-78
2022/08/22 08:07:44;;;;;;;8.95;3.50;;;;;;;;;;6091613;23;20018;-77
2022/08/22 08:10:13;;;;;;;8.05;3.20;;;;;;;;;;6090079;23;20021;-78
2022/08/22 08:12:40;;;;;;;5.93;3.17;;;;;;;;;;6092063;23;20085;-77
2022/08/22 08:15:08;;;;;;;11.30;3.78;;;;;;;;;;6089907;23;20477;-77
2022/08/22 08:17:35;;;;;;;7.75;3.10;;;;;;;;;;6115199;23;20053;-77
2022/08/22 08:20:20;;;;;;;5.63;1.90;;;;;;;;;;6114632;23;20014;-77
2022/08/22 08:22:47;;;;;;;4.57;1.67;;;;;;;;;;6115435;23;20347;-77
2022/08/22 08:25:17;;;;;;;4.43;1.20;;;;;;;;;;6115991;23;20022;-78
2022/08/22 08:30:45;;;;;;;4.28;1.20;;;;;;;;;;6114734;23;20068;-77
2022/08/22 08:33:17;;;;;;;4.30;0.90;;;;;;;;;;6090705;23;20343;-78
2022/08/22 08:35:53;;;;;;;2.85;1.15;;;;;;;;;;6089759;23;20022;-77
2022/08/22 08:38:21;;;;;;;3.03;0.90;;;;;;;;;;6090960;23;20018;-78
2022/08/22 08:40:58;;;;;;;4.22;1.20;;;;;;;;;;6090072;23;20472;-78
2022/08/22 08:43:26;;;;;;;3.00;1.02;;;;;;;;;;6114692;23;20013;-78
2022/08/22 08:46:16;;;;;;;5.88;1.33;;;;;;;;;;6114179;23;20022;-77
2022/08/22 08:48:57;;;;;;;4.68;1.30;;;;;;;;;;6115209;23;20129;-77
2022/08/22 08:51:44;;;;;;;5.28;1.27;;;;;;;;;;6114307;23;20105;-77
2022/08/22 08:54:28;;;;;;;3.60;1.27;;;;;;;;;;6116005;23;20017;-78
2022/08/22 08:57:20;;;;;;;4.00;1.15;;;;;;;;;;6114800;23;20010;-77
2022/08/22 09:00:06;;;;;;;4.38;1.10;;;;;;;;;;6116993;23;20044;-78
2022/08/22 09:02:44;;;;;;;3.58;1.10;;;;;;;;;;6116465;23;20458;-77
2022/08/22 09:05:30;;;;;;;5.32;1.00;;;;;;;;;;6116220;23;20010;-79
2022/08/22 09:08:01;;;;;;;4.18;0.90;;;;;;;;;;6115438;23;20328;-77
2022/08/22 09:10:50;;;;;;;4.28;1.10;;;;;;;;;;6116527;23;20454;-78
2022/08/22 09:13:43;;;;;;;4.00;1.23;;;;;;;;;;6115527;23;20020;-78
2022/08/22 09:16:46;;;;;;;3.95;0.90;;;;;;;;;;6116821;23;20101;-78
2022/08/22 09:19:53;;;;;;;4.93;1.38;;;;;;;;;;6114821;23;20014;-78
2022/08/22 09:22:30;;;;;;;6.45;1.48;;;;;;;;;;6002520;23;20019;-78
2022/08/22 09:25:01;;;;;;;;;;;;;;;;;;6027602;23;20030;-78
2022/08/22 09:27:31;;;;;;;4.10;1.27;;;;;;;;;;6002786;23;19909;-78
2022/08/22 09:30:04;;;;;;;4.22;1.10;;;;;;;;;;6026590;23;20464;-77
2022/08/22 09:33:10;;;;;;;5.53;1.10;;;;;;;;;;6025868;23;20100;-78
2022/08/22 09:35:54;;;;;;;4.00;0.98;;;;;;;;;;6002006;23;20471;-78
2022/08/22 09:38:49;;;;;;;4.28;0.88;;;;;;;;;;6026700;23;20047;-77
2022/08/22 09:41:33;;;;;;;3.33;0.75;;;;;;;;;;6019492;23;20132;-78
2022/08/22 09:44:11;;;;;;;4.38;1.10;;;;;;;;;;6026296;23;20030;-78
2022/08/22 09:46:55;;;;;;;5.43;1.17;;;;;;;;;;6026082;23;20371;-78
2022/08/22 09:49:24;;;;;;;5.13;1.30;;;;;;;;;;6003110;23;20573;-78
2022/08/22 09:52:04;;;;;;;4.00;0.90;;;;;;;;;;6003019;23;20027;-78
2022/08/22 09:54:32;;;;;;;5.93;1.02;;;;;;;;;;6115409;23;20029;-78
2022/08/22 09:57:29;;;;;;;6.30;1.35;;;;;;;;;;6104007;23;20022;-79
2022/08/22 10:00:00;;;;;;;4.82;1.40;;;;;;;;;;6115116;23;20017;-80
2022/08/22 10:02:46;;;;;;;2.92;0.90;;;;;;;;;;6114774;23;20496;-80
2022/08/22 10:05:21;;;;;;;4.45;1.13;;;;;;;;;;6115347;23;20283;-79
2022/08/22 10:08:17;;;;;;;3.70;1.05;;;;;;;;;;6115272;23;20701;-77
2022/08/22 10:10:54;;;;;;;4.55;1.10;;;;;;;;;;6116111;23;20097;-79
2022/08/22 10:13:25;;;;;;;3.40;0.90;;;;;;;;;;6116217;23;20738;-77
2022/08/22 10:16:28;;;;;;;4.05;1.08;;;;;;;;;;6113825;23;20029;-77
2022/08/22 10:19:12;;;;;;;6.05;1.10;;;;;;;;;;6114973;23;20018;-88
2022/08/22 10:22:03;;;;;;;3.50;0.93;;;;;;;;;;6114895;23;20064;-90
2022/08/22 10:25:00;;;;;;;3.78;1.00;;;;;;;;;;6090819;23;20358;-90
2022/08/22 10:27:55;;;;;;;3.42;1.00;;;;;;;;;;6091152;23;20025;-91
2022/08/22 10:30:27;;;;;;;4.07;0.90;;;;;;;;;;6052864;23;20014;-88
2022/08/22 10:33:12;;;;;;;4.38;0.95;;;;;;;;;;6116013;23;20014;-86
2022/08/22 10:35:49;;;;;;;3.63;0.93;;;;;;;;;;6116765;23;20113;-86
2022/08/22 10:38:27;;;;;;;3.92;0.90;;;;;;;;;;6114953;23;20497;-88
2022/08/22 10:41:30;;;;;;;3.67;0.77;;;;;;;;;;6089807;23;20078;-89
2022/08/22 10:43:58;;;;;;;5.07;1.17;;;;;;;;;;6114632;23;20443;-90
2022/08/22 10:46:33;;;;;;;3.67;0.90;;;;;;;;;;6114851;23;20037;-88
2022/08/22 10:49:25;;;;;;;4.47;1.02;;;;;;;;;;6115093;23;20030;-88
2022/08/22 10:51:59;;;;;;;4.20;0.90;;;;;;;;;;6055447;23;20033;-89
2022/08/22 10:54:50;;;;;;;3.00;0.90;;;;;;;;;;6091315;23;20069;-89
2022/08/22 10:57:26;;;;;;;2.63;0.70;;;;;;;;;;6113049;23;20033;-88
2022/08/22 11:00:12;;;;;;;3.95;0.75;;;;;;;;;;6116423;23;20450;-88
2022/08/22 11:02:40;;;;;;;2.58;0.80;;;;;;;;;;6114151;23;20025;-88
2022/08/22 11:05:26;;;;;;;3.58;0.90;;;;;;;;;;6114217;23;20463;-88
2022/08/22 11:08:19;;;;;;;6.53;1.30;;;;;;;;;;6114801;23;20018;-89
2022/08/22 11:11:19;;;;;;;2.88;0.75;;;;;;;;;;6116933;23;20023;-87
2022/08/22 11:13:56;;;;;;;2.60;0.70;;;;;;;;;;6078137;23;20032;-88
2022/08/22 11:16:55;;;;;;;4.40;0.70;;;;;;;;;;6116491;23;20057;-88
2022/08/22 11:19:26;;;;;;;3.50;0.93;;;;;;;;;;6116721;23;20028;-90
2022/08/22 11:21:58;;;;;;;3.90;1.10;;;;;;;;;;6116098;23;20032;-90
2022/08/22 11:24:29;;;;;;;2.65;0.80;;;;;;;;;;6116595;23;20021;-89
2022/08/22 11:26:55;;;;;;;3.17;1.20;;;;;;;;;;6115840;23;20446;-87
2022/08/22 11:29:44;;;;;;;3.10;0.60;;;;;;;;;;6117231;23;20026;-86
2022/08/22 11:32:29;;;;;;;2.67;0.90;;;;;;;;;;6091417;23;20237;-88
2022/08/22 11:35:05;;;;;;;3.05;0.80;;;;;;;;;;6116749;23;20018;-88
2022/08/22 11:37:52;;;;;;;3.60;1.00;;;;;;;;;;6116495;23;20093;-88
2022/08/22 11:40:39;;;;;;;2.25;0.60;;;;;;;;;;6115917;23;20382;-80
2022/08/22 11:43:29;;;;;;;2.70;0.82;;;;;;;;;;6092892;23;20010;-79
2022/08/22 11:45:57;;;;;;;3.08;0.70;;;;;;;;;;6115167;23;20022;-80
2022/08/22 11:48:27;;;;;;;3.17;0.68;;;;;;;;;;6092133;23;20042;-80
2022/08/22 11:51:37;;;;;;;3.85;0.90;;;;;;;;;;6116102;23;20020;-79
2022/08/22 11:54:09;;;;;;;3.45;1.02;;;;;;;;;;6027577;23;20042;-79
2022/08/22 11:56:40;;;;;;;2.58;0.75;;;;;;;;;;6027947;23;20625;-79
2022/08/22 11:59:23;;;;;;;3.63;0.98;;;;;;;;;;6075682;23;20014;-80
2022/08/22 12:02:29;;;;;;;2.85;0.90;;;;;;;;;;6091114;23;20046;-81
2022/08/22 12:05:05;;;;;;;2.45;0.95;;;;;;;;;;6075750;23;20025;-81
2022/08/22 12:07:34;;;;;;;3.33;1.05;;;;;;;;;;6115506;23;20469;-79
2022/08/22 12:10:16;;;;;;;5.15;1.10;;;;;;;;;;6115361;23;20647;-79
2022/08/22 12:12:51;;;;;;;2.45;0.90;;;;;;;;;;6091859;23;20025;-79
2022/08/22 12:15:19;;;;;;;2.60;0.80;;;;;;;;;;6114882;23;20493;-78
2022/08/22 12:17:47;;;;;;;4.32;1.13;;;;;;;;;;6116394;23;20018;-79
2022/08/22 12:20:13;;;;;;;4.05;1.10;;;;;;;;;;6116713;23;20022;-79
2022/08/22 12:22:59;;;;;;;5.25;1.02;;;;;;;;;;6115715;23;20020;-79
2022/08/22 12:25:24;;;;;;;2.63;0.93;;;;;;;;;;6114409;23;20046;-79
2022/08/22 12:28:40;;;;;;;3.53;1.08;;;;;;;;;;6117300;23;20092;-79
2022/08/22 12:31:31;;;;;;;3.00;0.87;;;;;;;;;;6008760;23;20045;-80
2022/08/22 12:33:56;;;;;;;4.45;1.10;;;;;;;;;;6115682;23;20018;-78
2022/08/22 12:36:46;;;;;;;3.72;1.05;;;;;;;;;;6117045;23;20397;-78
2022/08/22 12:39:31;;;;;;;2.63;0.90;;;;;;;;;;6116437;23;20014;-78
2022/08/22 12:42:05;;;;;;;5.40;1.02;;;;;;;;;;6115778;23;20024;-79
2022/08/22 12:45:17;;;;;;;4.70;1.10;;;;;;;;;;6115880;23;20022;-78
2022/08/22 12:48:01;;;;;;;5.70;1.23;;;;;;;;;;6116093;23;20092;-79
2022/08/22 12:50:55;;;;;;;3.67;1.10;;;;;;;;;;6113358;23;20081;-79
2022/08/22 12:53:46;;;;;;;6.55;1.40;;;;;;;;;;6089981;23;20018;-78
2022/08/22 12:56:22;;;;;;;3.53;1.00;;;;;;;;;;6090194;23;20343;-79
2022/08/22 12:59:09;;;;;;;3.33;1.00;;;;;;;;;;6115777;23;20018;-79
2022/08/22 13:01:38;;;;;;;4.53;1.08;;;;;;;;;;6117708;23;20084;-80
2022/08/22 13:04:06;;;;;;;3.45;1.00;;;;;;;;;;6115709;23;20135;-80
2022/08/22 13:06:40;;;;;;;2.80;1.05;;;;;;;;;;6090667;23;20024;-79
2022/08/22 13:09:21;;;;;;;4.18;1.00;;;;;;;;;;6117591;23;20018;-79
2022/08/22 13:11:50;;;;;;;4.38;1.13;;;;;;;;;;6090024;23;20430;-79
2022/08/22 13:14:21;;;;;;;3.03;1.00;;;;;;;;;;6090767;23;20020;-78
2022/08/22 13:16:53;;;;;;;3.55;1.00;;;;;;;;;;6115126;23;20073;-79
2022/08/22 13:19:22;;;;;;;7.25;1.73;;;;;;;;;;6115695;23;20167;-79
2022/08/22 13:21:56;;;;;;;5.30;1.17;;;;;;;;;;6091016;23;20029;-78
2022/08/22 13:24:30;;;;;;;3.55;1.10;;;;;;;;;;6115803;23;20018;-79
2022/08/22 13:26:59;;;;;;;5.75;1.20;;;;;;;;;;6114301;23;20018;-79
2022/08/22 13:29:33;;;;;;;3.63;0.93;;;;;;;;;;6115152;23;20010;-79
2022/08/22 13:32:00;;;;;;;6.93;1.20;;;;;;;;;;6115282;23;20021;-79
2022/08/22 13:34:42;;;;;;;3.80;0.90;;;;;;;;;;6091629;23;20014;-79
2022/08/22 13:37:17;;;;;;;4.03;1.17;;;;;;;;;;6090382;23;20017;-80
2022/08/22 13:39:45;;;;;;;2.90;1.10;;;;;;;;;;6090731;23;20014;-80
2022/08/22 13:42:20;;;;;;;2.17;0.75;;;;;;;;;;6090606;23;20018;-79
2022/08/22 13:44:49;;;;;;;2.65;0.90;;;;;;;;;;6090200;23;20450;-79
2022/08/22 13:47:17;;;;;;;2.60;0.75;;;;;;;;;;6089990;23;20398;-80
2022/08/22 13:49:46;;;;;;;4.50;1.10;;;;;;;;;;6115823;23;20096;-80
2022/08/22 13:52:37;;;;;;;2.80;0.90;;;;;;;;;;6090778;23;20623;-80
2022/08/22 13:55:08;;;;;;;5.22;0.90;;;;;;;;;;6090438;23;20014;-80
2022/08/22 13:57:55;;;;;;;2.92;0.90;;;;;;;;;;6115300;23;20338;-80
2022/08/22 14:00:43;;;;;;;3.85;1.10;;;;;;;;;;6113554;23;20017;-80
2022/08/22 14:03:17;;;;;;;4.18;1.20;;;;;;;;;;6116312;23;20010;-82
2022/08/22 14:05:48;;;;;;;4.00;1.13;;;;;;;;;;6091018;23;20010;-83
2022/08/22 14:08:17;;;;;;;3.67;1.10;;;;;;;;;;6092058;23;20076;-83
2022/08/22 14:10:51;;;;;;;3.33;1.00;;;;;;;;;;6091886;23;20392;-82
2022/08/22 14:13:32;;;;;;;3.33;1.02;;;;;;;;;;6116870;23;20018;-84
2022/08/22 14:16:02;;;;;;;3.53;0.90;;;;;;;;;;6116637;23;20025;-84
2022/08/22 14:18:35;;;;;;;3.20;0.90;;;;;;;;;;6092128;23;20030;-84
2022/08/22 14:21:18;;;;;;;2.70;0.90;;;;;;;;;;6115438;23;20093;-83
2022/08/22 14:23:45;;;;;;;5.07;1.00;;;;;;;;;;6117476;23;20024;-83
2022/08/22 14:26:22;;;;;;;2.65;0.82;;;;;;;;;;6091489;23;20018;-83
2022/08/22 14:28:48;;;;;;;2.38;0.80;;;;;;;;;;6091948;23;20517;-83
2022/08/22 14:31:13;;;;;;;3.05;0.93;;;;;;;;;;6116055;23;20100;-84
2022/08/22 14:33:46;;;;;;;3.13;1.10;;;;;;;;;;6092888;23;20351;-83
2022/08/22 14:36:21;;;;;;;2.92;1.13;;;;;;;;;;6092601;23;20101;-84
2022/08/22 14:39:21;;;;;;;6.20;1.02;;;;;;;;;;6093004;23;20025;-84
2022/08/22 14:41:52;;;;;;;4.20;1.05;;;;;;;;;;6084709;23;20014;-84
2022/08/22 14:44:45;;;;;;;2.92;1.10;;;;;;;;;;6093942;23;20450;-84
2022/08/22 14:47:28;;;;;;;4.97;1.17;;;;;;;;;;6118603;23;20404;-84
2022/08/22 14:49:58;;;;;;;3.13;1.00;;;;;;;;;;6093379;23;20064;-83
2022/08/22 14:52:29;;;;;;;3.55;1.23;;;;;;;;;;6093841;23;20477;-82
2022/08/22 14:55:10;;;;;;;3.50;1.05;;;;;;;;;;6119818;23;20176;-83
2022/08/22 14:57:42;;;;;;;2.38;1.00;;;;;;;;;;6117721;23;20018;-83
2022/08/22 15:00:11;;;;;;;4.45;1.15;;;;;;;;;;6092480;23;20346;-84
2022/08/22 15:02:37;;;;;;;3.53;1.10;;;;;;;;;;6094298;23;20018;-83
2022/08/22 15:05:18;;;;;;;3.95;1.30;;;;;;;;;;6117983;23;20157;-81
2022/08/22 15:07:53;;;;;;;3.03;1.10;;;;;;;;;;6093249;23;20371;-85
2022/08/22 15:10:28;;;;;;;3.15;0.95;;;;;;;;;;6092832;23;20470;-82
2022/08/22 15:12:58;;;;;;;4.95;1.38;;;;;;;;;;6118107;23;20044;-85
2022/08/22 15:15:26;;;;;;;3.65;1.25;;;;;;;;;;6093148;23;20324;-83
2022/08/22 15:17:52;;;;;;;5.32;1.92;;;;;;;;;;6118277;23;20014;-84
2022/08/22 15:20:35;;;;;;;3.97;1.35;;;;;;;;;;6092270;23;20363;-84
2022/08/22 15:23:04;;;;;;;5.18;1.10;;;;;;;;;;6093929;23;20014;-83
2022/08/22 15:25:33;;;;;;;3.78;0.98;;;;;;;;;;6093548;23;20014;-84
2022/08/22 15:28:07;;;;;;;3.10;1.10;;;;;;;;;;6117921;23;20018;-84
2022/08/22 15:30:49;;;;;;;2.88;1.00;;;;;;;;;;6092983;23;20016;-84
2022/08/22 15:33:23;;;;;;;2.90;0.85;;;;;;;;;;6093788;23;20017;-84
2022/08/22 15:35:50;;;;;;;4.18;1.17;;;;;;;;;;6092474;23;20025;-83
2022/08/22 15:38:31;;;;;;;3.90;1.20;;;;;;;;;;6094121;23;20347;-83
2022/08/22 15:41:31;;;;;;;3.75;1.23;;;;;;;;;;6117422;23;20021;-83
2022/08/22 15:44:02;;;;;;;3.50;1.17;;;;;;;;;;6118289;23;20022;-83
2022/08/22 15:46:32;;;;;;;3.90;1.10;;;;;;;;;;6117838;23;20390;-83
2022/08/22 15:49:22;;;;;;;3.60;1.02;;;;;;;;;;6093366;23;20100;-84
2022/08/22 15:52:02;;;;;;;4.32;1.30;;;;;;;;;;6080051;23;20014;-83
2022/08/22 15:54:27;;;;;;;3.22;1.05;;;;;;;;;;6117409;23;20068;-83
2022/08/22 15:57:04;;;;;;;3.15;1.00;;;;;;;;;;6118126;23;20022;-84